createdAt,value
2018-12-14T00:01:22.133Z,77.53
2018-12-14T00:03:50.458Z,77.55
2018-12-14T00:06:18.769Z,77.79
2018-12-14T00:08:47.085Z,77.61
2018-12-14T00:11:15.390Z,77.48
2018-12-14T00:13:43.719Z,77.36
2018-12-14T00:16:12.047Z,77.25
2018-12-14T00:18:40.370Z,77.46
2018-12-14T00:21:08.739Z,77.55
2018-12-14T00:23:37.064Z,77.86
2018-12-14T00:26:05.384Z,77.82
2018-12-14T00:28:33.692Z,78.28
2018-12-14T00:31:02.006Z,78.83
2018-12-14T00:33:30.324Z,78.71
2018-12-14T00:35:58.643Z,78.56
2018-12-14T00:38:26.975Z,78.11
2018-12-14T00:40:55.291Z,78.06
2018-12-14T00:43:23.622Z,78.54
2018-12-14T00:45:51.939Z,78.51
2018-12-14T00:48:20.264Z,78.13
2018-12-14T00:50:48.596Z,78.02
2018-12-14T00:53:16.917Z,78.08
2018-12-14T00:55:45.233Z,77.98
2018-12-14T00:58:13.569Z,78.36
2018-12-14T01:00:41.885Z,78.79
2018-12-14T01:03:10.207Z,79.17
2018-12-14T01:05:38.514Z,78.52
2018-12-14T01:08:06.838Z,78.64
2018-12-14T01:10:35.155Z,78.63
2018-12-14T01:13:03.482Z,78.72
2018-12-14T01:15:31.788Z,78.90
2018-12-14T01:18:00.126Z,78.88
2018-12-14T01:20:28.443Z,79.36
2018-12-14T01:22:56.789Z,79.12
2018-12-14T01:25:25.102Z,78.88
2018-12-14T01:27:53.429Z,78.36
2018-12-14T01:30:21.751Z,78.34
2018-12-14T01:32:50.073Z,79.13
2018-12-14T01:35:18.396Z,79.30
2018-12-14T01:37:46.707Z,79.05
2018-12-14T01:40:15.023Z,78.74
2018-12-14T01:42:43.858Z,78.77
2018-12-14T01:45:12.176Z,78.79
2018-12-14T01:47:40.493Z,79.00
2018-12-14T01:50:08.802Z,79.50
2018-12-14T01:52:37.114Z,80.09
2018-12-14T01:55:05.424Z,79.46
2018-12-14T01:57:33.743Z,79.97
2018-12-14T02:00:02.069Z,80.38
2018-12-14T02:02:30.391Z,80.29
2018-12-14T02:04:58.725Z,80.53
2018-12-14T02:07:27.063Z,81.17
2018-12-14T02:09:55.391Z,81.67
2018-12-14T02:12:23.723Z,81.53
2018-12-14T02:14:52.045Z,81.40
2018-12-14T02:17:20.368Z,80.90
2018-12-14T02:19:48.689Z,81.11
2018-12-14T02:22:17.004Z,80.81
2018-12-14T02:24:45.347Z,80.42
2018-12-14T02:27:13.672Z,80.49
2018-12-14T02:29:41.992Z,80.56
2018-12-14T02:32:10.323Z,80.96
2018-12-14T02:34:38.668Z,80.92
2018-12-14T02:37:06.993Z,80.83
2018-12-14T02:39:35.307Z,80.53
2018-12-14T02:42:03.618Z,80.27
2018-12-14T02:44:31.942Z,80.02
2018-12-14T02:47:00.255Z,79.96
2018-12-14T02:49:28.570Z,79.88
2018-12-14T02:51:56.888Z,79.87
2018-12-14T02:54:25.205Z,79.75
2018-12-14T02:56:53.523Z,79.81
2018-12-14T02:59:21.839Z,80.00
2018-12-14T03:01:50.174Z,80.11
2018-12-14T03:04:18.485Z,80.06
2018-12-14T03:06:46.817Z,80.34
2018-12-14T03:09:15.117Z,80.34
2018-12-14T03:11:43.434Z,80.50
2018-12-14T03:14:11.761Z,80.76
2018-12-14T03:16:40.088Z,81.26
2018-12-14T03:19:08.621Z,81.88
2018-12-14T03:21:36.726Z,82.04
2018-12-14T03:24:05.047Z,81.81
2018-12-14T03:26:33.408Z,81.72
2018-12-14T03:29:01.740Z,81.41
2018-12-14T03:31:30.062Z,81.75
2018-12-14T03:33:58.378Z,81.47
2018-12-14T03:36:26.708Z,80.88
2018-12-14T03:38:55.021Z,81.17
2018-12-14T03:41:23.345Z,81.49
2018-12-14T03:43:51.677Z,82.29
2018-12-14T03:46:19.997Z,82.75
2018-12-14T03:48:48.351Z,82.44
2018-12-14T03:51:16.671Z,82.27
2018-12-14T03:53:45.005Z,82.07
2018-12-14T03:56:13.321Z,81.46
2018-12-14T03:58:41.676Z,81.36
2018-12-14T04:01:09.971Z,81.15
2018-12-14T04:03:38.285Z,81.11
2018-12-14T04:06:06.606Z,81.15
2018-12-14T04:08:34.932Z,81.11
2018-12-14T04:11:03.247Z,81.14
2018-12-14T04:13:31.568Z,81.51
2018-12-14T04:15:59.894Z,81.38
2018-12-14T04:18:28.214Z,81.53
2018-12-14T04:20:56.528Z,81.41
2018-12-14T04:23:24.847Z,81.47
2018-12-14T04:25:53.180Z,81.63
2018-12-14T04:28:21.522Z,81.61
2018-12-14T04:30:49.845Z,81.96
2018-12-14T04:33:18.180Z,82.19
2018-12-14T04:35:46.508Z,82.39
2018-12-14T04:38:14.829Z,82.35
2018-12-14T04:40:43.159Z,82.53
2018-12-14T04:43:11.480Z,82.31
2018-12-14T04:45:39.793Z,82.35
2018-12-14T04:48:08.126Z,82.48
2018-12-14T04:50:36.440Z,82.83
2018-12-14T04:53:04.759Z,82.89
2018-12-14T04:55:33.084Z,82.90
2018-12-14T04:58:01.406Z,82.88
2018-12-14T05:00:29.726Z,82.95
2018-12-14T05:02:58.070Z,82.68
2018-12-14T05:05:26.393Z,82.55
2018-12-14T05:07:54.943Z,82.71
2018-12-14T05:10:23.305Z,82.77
2018-12-14T05:12:56.150Z,82.43
2018-12-14T05:15:19.979Z,82.22
2018-12-14T05:17:48.301Z,82.23
2018-12-14T05:20:16.622Z,82.09
2018-12-14T05:22:44.944Z,81.71
2018-12-14T05:25:13.276Z,81.90
2018-12-14T05:27:41.602Z,82.43
2018-12-14T05:30:09.963Z,82.81
2018-12-14T05:32:38.289Z,83.03
2018-12-14T05:35:06.619Z,83.10
2018-12-14T05:37:34.947Z,83.50
2018-12-14T05:40:03.290Z,83.34
2018-12-14T05:42:31.607Z,83.47
2018-12-14T05:44:59.934Z,83.37
2018-12-14T05:47:28.263Z,83.21
2018-12-14T05:49:56.592Z,82.97
2018-12-14T05:52:24.959Z,82.56
2018-12-14T05:54:53.264Z,82.44
2018-12-14T05:57:21.586Z,82.36
2018-12-14T05:59:49.907Z,82.21
2018-12-14T06:02:18.233Z,82.06
2018-12-14T06:04:46.556Z,82.28
2018-12-14T06:07:14.896Z,82.43
2018-12-14T06:09:43.219Z,82.99
2018-12-14T06:12:11.544Z,83.14
2018-12-14T06:14:39.866Z,83.18
2018-12-14T06:17:08.201Z,83.20
2018-12-14T06:19:36.535Z,83.31
2018-12-14T06:22:04.905Z,82.90
2018-12-14T06:24:33.235Z,82.68
2018-12-14T06:27:01.562Z,82.42
2018-12-14T06:29:29.916Z,82.37
2018-12-14T06:31:58.285Z,82.25
2018-12-14T06:34:27.193Z,82.22
2018-12-14T06:36:55.292Z,82.28
2018-12-14T06:39:23.613Z,82.22
2018-12-14T06:41:51.946Z,82.20
2018-12-14T06:44:20.273Z,82.30
2018-12-14T06:46:48.610Z,82.47
2018-12-14T06:49:16.939Z,82.94
2018-12-14T06:51:45.459Z,83.02
2018-12-14T06:54:13.786Z,82.88
2018-12-14T06:56:42.106Z,82.85
2018-12-14T06:59:10.463Z,82.62
2018-12-14T07:01:38.786Z,82.43
2018-12-14T07:04:07.110Z,82.50
2018-12-14T07:06:35.491Z,82.28
2018-12-14T07:09:03.779Z,82.21
2018-12-14T07:11:32.104Z,82.23
2018-12-14T07:14:00.428Z,82.19
2018-12-14T07:16:28.760Z,82.35
2018-12-14T07:18:57.115Z,82.33
2018-12-14T07:21:25.458Z,82.06
2018-12-14T07:23:53.788Z,82.23
2018-12-14T07:26:22.113Z,82.32
2018-12-14T07:28:50.445Z,82.23
2018-12-14T07:31:18.784Z,82.03
2018-12-14T07:33:47.129Z,82.14
2018-12-14T07:36:15.476Z,82.19
2018-12-14T07:38:48.091Z,82.11
2018-12-14T07:41:12.129Z,82.14
2018-12-14T07:43:40.450Z,82.00
2018-12-14T07:46:08.794Z,81.87
2018-12-14T07:48:37.147Z,81.95
2018-12-14T07:51:05.497Z,81.94
2018-12-14T07:53:33.827Z,81.70
2018-12-14T07:56:02.166Z,81.55
2018-12-14T07:58:30.498Z,81.50
2018-12-14T08:00:58.833Z,81.57
2018-12-14T08:03:27.197Z,81.47
2018-12-14T08:05:55.789Z,81.25
2018-12-14T08:08:24.127Z,81.08
2018-12-14T08:10:52.676Z,80.89
2018-12-14T08:13:20.783Z,80.90
2018-12-14T08:15:49.118Z,81.02
2018-12-14T08:18:17.453Z,81.21
2018-12-14T08:20:45.788Z,81.42
2018-12-14T08:23:14.139Z,81.45
2018-12-14T08:25:42.500Z,81.32
2018-12-14T08:28:10.820Z,81.23
2018-12-14T08:30:39.148Z,81.24
2018-12-14T08:33:07.484Z,81.42
2018-12-14T08:35:36.165Z,81.16
2018-12-14T08:38:04.516Z,81.08
2018-12-14T08:40:33.082Z,80.97
2018-12-14T08:43:01.179Z,80.90
2018-12-14T08:45:29.508Z,80.85
2018-12-14T08:47:57.918Z,80.61
2018-12-14T08:50:26.260Z,80.64
2018-12-14T08:52:54.592Z,80.75
2018-12-14T08:55:23.269Z,80.69
2018-12-14T08:57:51.602Z,80.35
2018-12-14T09:00:19.931Z,80.09
2018-12-14T09:02:48.942Z,80.18
2018-12-14T09:05:17.275Z,80.07
2018-12-14T09:07:45.612Z,79.95
2018-12-14T09:10:14.074Z,80.06
2018-12-14T09:12:42.402Z,79.99
2018-12-14T09:15:10.739Z,80.11
2018-12-14T09:17:39.931Z,80.26
2018-12-14T09:20:08.265Z,80.40
2018-12-14T09:22:36.611Z,80.33
2018-12-14T09:25:05.494Z,80.11
2018-12-14T09:27:33.595Z,79.79
2018-12-14T09:30:01.943Z,79.82
2018-12-14T09:32:30.613Z,79.69
2018-12-14T09:34:58.942Z,79.85
2018-12-14T09:37:27.332Z,80.12
2018-12-14T09:39:57.269Z,80.20
2018-12-14T09:42:24.025Z,80.25
2018-12-14T09:44:52.576Z,80.33
2018-12-14T09:47:20.954Z,80.45
2018-12-14T09:49:49.089Z,80.41
2018-12-14T09:52:17.438Z,80.54
2018-12-14T09:54:45.781Z,80.65
2018-12-14T09:57:14.141Z,80.92
2018-12-14T09:59:42.477Z,80.74
2018-12-14T10:02:10.815Z,80.81
2018-12-14T10:04:39.165Z,81.04
2018-12-14T10:07:07.493Z,80.93
2018-12-14T10:09:35.848Z,80.63
2018-12-14T10:12:04.205Z,80.70
2018-12-14T10:14:32.587Z,80.76
2018-12-14T10:17:00.907Z,80.86
2018-12-14T10:19:30.030Z,80.96
2018-12-14T10:21:58.361Z,81.05
2018-12-14T10:24:26.704Z,80.51
2018-12-14T10:26:55.047Z,80.42
2018-12-14T10:29:23.703Z,80.61
2018-12-14T10:31:52.272Z,80.84
2018-12-14T10:34:20.395Z,80.82
2018-12-14T10:36:48.724Z,81.05
2018-12-14T10:39:17.050Z,81.16
2018-12-14T10:41:45.421Z,81.03
2018-12-14T10:44:13.773Z,80.86
2018-12-14T10:46:42.115Z,80.30
2018-12-14T10:49:10.456Z,80.52
2018-12-14T10:51:38.785Z,80.79
2018-12-14T10:54:07.388Z,80.99
2018-12-14T10:56:35.735Z,81.05
2018-12-14T10:59:04.122Z,80.91
2018-12-14T11:01:38.456Z,80.65
2018-12-14T11:04:06.791Z,80.81
2018-12-14T11:06:35.131Z,80.94
2018-12-14T11:09:03.465Z,81.04
2018-12-14T11:11:31.791Z,81.05
2018-12-14T11:14:00.123Z,81.26
2018-12-14T11:16:28.560Z,81.20
2018-12-14T11:18:56.903Z,81.34
2018-12-14T11:21:25.235Z,81.57
2018-12-14T11:23:53.565Z,81.15
2018-12-14T11:26:21.887Z,81.05
2018-12-14T11:28:50.218Z,81.22
2018-12-14T11:31:18.553Z,81.05
2018-12-14T11:33:46.885Z,80.56
2018-12-14T11:36:15.209Z,80.69
2018-12-14T11:38:43.538Z,80.64
2018-12-14T11:41:18.223Z,80.58
2018-12-14T11:43:40.255Z,80.62
2018-12-14T11:46:08.598Z,80.78
2018-12-14T11:48:36.953Z,80.82
2018-12-14T11:51:05.299Z,80.95
2018-12-14T11:53:33.634Z,80.87
2018-12-14T11:56:01.972Z,81.02
2018-12-14T11:58:30.618Z,81.46
2018-12-14T12:00:58.950Z,81.40
2018-12-14T12:03:27.289Z,81.20
2018-12-14T12:05:55.619Z,80.68
2018-12-14T12:08:23.975Z,80.62
2018-12-14T12:10:52.315Z,80.66
2018-12-14T12:13:20.629Z,80.34
2018-12-14T12:15:48.966Z,80.17
2018-12-14T12:18:17.291Z,80.48
2018-12-14T12:20:45.632Z,80.53
2018-12-14T12:23:13.970Z,80.75
2018-12-14T12:25:42.321Z,80.96
2018-12-14T12:28:10.639Z,81.24
2018-12-14T12:30:38.977Z,81.17
2018-12-14T12:33:07.310Z,81.30
2018-12-14T12:35:35.666Z,81.40
2018-12-14T12:38:03.997Z,81.43
2018-12-14T12:40:32.353Z,81.53
2018-12-14T12:43:00.703Z,81.36
2018-12-14T12:45:29.048Z,81.53
2018-12-14T12:47:57.387Z,81.34
2018-12-14T12:50:25.715Z,81.29
2018-12-14T12:52:54.036Z,81.34
2018-12-14T12:55:22.398Z,81.43
2018-12-14T12:57:50.745Z,81.24
2018-12-14T13:00:19.065Z,81.30
2018-12-14T13:02:47.407Z,81.47
2018-12-14T13:05:15.963Z,81.58
2018-12-14T13:07:44.063Z,81.48
2018-12-14T13:10:12.407Z,81.29
2018-12-14T13:12:40.735Z,81.27
2018-12-14T13:15:09.085Z,81.12
2018-12-14T13:17:37.421Z,81.12
2018-12-14T13:20:05.743Z,80.90
2018-12-14T13:22:34.091Z,80.78
2018-12-14T13:25:02.418Z,80.90
2018-12-14T13:27:30.756Z,80.76
2018-12-14T13:29:59.099Z,80.83
2018-12-14T13:32:27.426Z,80.61
2018-12-14T13:34:55.761Z,80.71
2018-12-14T13:37:24.105Z,80.65
2018-12-14T13:39:52.446Z,80.94
2018-12-14T13:42:20.799Z,80.84
2018-12-14T13:44:49.128Z,80.97
2018-12-14T13:47:17.470Z,81.08
2018-12-14T13:49:45.801Z,81.13
2018-12-14T13:52:14.174Z,81.25
2018-12-14T13:54:42.511Z,81.72
2018-12-14T13:57:10.837Z,81.58
2018-12-14T13:59:39.181Z,81.28
2018-12-14T14:02:07.516Z,81.08
2018-12-14T14:04:36.013Z,80.81
2018-12-14T14:07:04.190Z,80.80
2018-12-14T14:09:33.780Z,80.49
2018-12-14T14:12:02.124Z,80.44
2018-12-14T14:14:30.477Z,80.67
2018-12-14T14:16:58.815Z,80.80
2018-12-14T14:19:27.162Z,81.35
2018-12-14T14:21:55.506Z,81.52
2018-12-14T14:24:23.840Z,81.04
2018-12-14T14:26:52.523Z,80.98
2018-12-14T14:29:20.849Z,81.31
2018-12-14T14:31:49.547Z,81.35
2018-12-14T14:34:18.212Z,81.29
2018-12-14T14:36:46.533Z,81.10
2018-12-14T14:39:15.148Z,81.21
2018-12-14T14:41:43.491Z,81.14
2018-12-14T14:44:12.053Z,81.11
2018-12-14T14:46:40.206Z,80.97
2018-12-14T14:49:08.563Z,80.77
2018-12-14T14:51:37.516Z,80.68
2018-12-14T14:54:05.862Z,80.58
2018-12-14T14:56:34.222Z,80.43
2018-12-14T14:59:02.596Z,80.58
2018-12-14T15:01:30.901Z,80.58
2018-12-14T15:03:59.322Z,80.69
2018-12-14T15:06:27.614Z,80.58
2018-12-14T15:08:56.022Z,80.39
2018-12-14T15:11:24.736Z,80.35
2018-12-14T15:13:53.442Z,80.48
2018-12-14T15:16:21.836Z,80.32
2018-12-14T15:18:50.229Z,80.18
2018-12-14T15:21:18.589Z,80.24
2018-12-14T15:23:48.072Z,80.81
2018-12-14T15:26:16.391Z,80.68
2018-12-14T15:28:44.757Z,80.90
2018-12-14T15:31:13.204Z,80.83
2018-12-14T15:33:41.559Z,80.74
2018-12-14T15:36:09.896Z,80.54
2018-12-14T15:38:38.552Z,80.44
2018-12-14T15:41:06.909Z,80.42
2018-12-14T15:43:35.295Z,80.44
2018-12-14T15:46:03.586Z,80.28
2018-12-14T15:48:31.969Z,80.25
2018-12-14T15:51:00.654Z,80.17
2018-12-14T15:53:33.140Z,80.16
2018-12-14T15:56:02.431Z,80.05
2018-12-14T15:58:30.796Z,80.22
2018-12-14T16:00:59.404Z,80.23
2018-12-14T16:03:28.168Z,80.14
2018-12-14T16:05:56.514Z,80.52
2018-12-14T16:08:24.863Z,80.55
2018-12-14T16:10:53.289Z,80.46
2018-12-14T16:13:21.632Z,80.18
2018-12-14T16:15:49.977Z,80.06
2018-12-14T16:18:18.546Z,80.31
2018-12-14T16:20:46.651Z,80.35
2018-12-14T16:23:15.176Z,80.25
2018-12-14T16:25:43.503Z,80.22
2018-12-14T16:28:11.946Z,80.24
2018-12-14T16:30:40.186Z,80.19
2018-12-14T16:33:08.519Z,80.43
2018-12-14T16:35:36.928Z,80.23
2018-12-14T16:38:05.613Z,80.35
2018-12-14T16:40:33.951Z,80.64
2018-12-14T16:43:02.555Z,80.48
2018-12-14T16:45:30.952Z,80.39
2018-12-14T16:47:59.787Z,80.64
2018-12-14T16:50:29.047Z,80.40
2018-12-14T16:52:57.517Z,80.78
2018-12-14T16:55:26.275Z,80.87
2018-12-14T16:57:54.666Z,81.03
2018-12-14T17:00:22.953Z,81.10
2018-12-14T17:02:51.682Z,80.64
2018-12-14T17:05:20.175Z,80.79
2018-12-14T17:07:48.498Z,81.16
2018-12-14T17:10:16.825Z,81.21
2018-12-14T17:12:45.288Z,81.16
2018-12-14T17:15:13.622Z,81.19
2018-12-14T17:17:42.314Z,81.48
2018-12-14T17:20:10.866Z,81.45
2018-12-14T17:22:39.311Z,81.83
2018-12-14T17:25:07.546Z,82.13
2018-12-14T17:27:36.489Z,82.08
2018-12-14T17:30:05.345Z,82.16
2018-12-14T17:32:33.696Z,82.44
2018-12-14T17:35:02.074Z,82.45
2018-12-14T17:37:30.498Z,82.25
2018-12-14T17:39:58.963Z,82.57
2018-12-14T17:42:27.363Z,82.79
2018-12-14T17:44:55.694Z,82.88
2018-12-14T17:47:24.446Z,82.93
2018-12-14T17:49:52.937Z,82.88
2018-12-14T17:52:21.651Z,82.77
2018-12-14T17:54:49.981Z,82.60
2018-12-14T17:57:18.455Z,82.42
2018-12-14T17:59:46.776Z,82.38
2018-12-14T18:02:15.111Z,82.37
2018-12-14T18:04:43.510Z,82.32
2018-12-14T18:07:11.819Z,82.26
2018-12-14T18:09:40.174Z,81.99
2018-12-14T18:12:08.648Z,81.85
2018-12-14T18:14:37.138Z,81.80
2018-12-14T18:17:05.567Z,81.76
2018-12-14T18:19:33.925Z,81.72
2018-12-14T18:22:02.264Z,81.66
2018-12-14T18:24:30.614Z,81.87
2018-12-14T18:26:59.080Z,82.04
2018-12-14T18:29:27.668Z,81.88
2018-12-14T18:31:55.827Z,82.37
2018-12-14T18:34:24.182Z,82.83
2018-12-14T18:36:52.519Z,82.95
2018-12-14T18:39:20.854Z,82.97
2018-12-14T18:41:49.201Z,83.12
2018-12-14T18:44:17.621Z,83.37
2018-12-14T18:46:45.961Z,83.58
2018-12-14T18:49:14.320Z,83.52
2018-12-14T18:51:42.735Z,83.42
2018-12-14T18:54:11.122Z,83.28
2018-12-14T18:56:39.455Z,83.38
2018-12-14T18:59:07.801Z,83.51
2018-12-14T19:01:36.143Z,83.63
2018-12-14T19:04:04.961Z,83.38
2018-12-14T19:06:33.184Z,83.53
2018-12-14T19:09:01.529Z,83.79
2018-12-14T19:11:29.945Z,83.97
2018-12-14T19:13:58.526Z,83.75
2018-12-14T19:16:27.935Z,83.75
2018-12-14T19:18:56.698Z,83.87
2018-12-14T19:21:25.046Z,83.89
2018-12-14T19:23:53.404Z,83.97
2018-12-14T19:26:21.771Z,83.90
2018-12-14T19:28:50.686Z,83.51
2018-12-14T19:31:18.987Z,83.46
2018-12-14T19:33:47.336Z,83.63
2018-12-14T19:36:16.925Z,83.45
2018-12-14T19:38:45.372Z,83.46
2018-12-14T19:41:13.702Z,83.41
2018-12-14T19:43:42.465Z,83.22
2018-12-14T19:46:11.334Z,83.05
2018-12-14T19:48:40.351Z,82.90
2018-12-14T19:51:10.631Z,82.80
2018-12-14T19:53:39.495Z,82.81
2018-12-14T19:56:08.761Z,82.89
2018-12-14T19:58:37.254Z,83.14
2018-12-14T20:01:06.507Z,83.11
2018-12-14T20:03:34.798Z,83.01
2018-12-14T20:06:03.431Z,82.70
2018-12-14T20:08:31.709Z,82.99
2018-12-14T20:11:00.071Z,83.07
2018-12-14T20:13:29.006Z,83.15
2018-12-14T20:15:57.934Z,83.03
2018-12-14T20:18:26.067Z,83.29
2018-12-14T20:20:57.106Z,82.99
2018-12-14T20:23:24.743Z,83.11
2018-12-14T20:25:53.100Z,82.98
2018-12-14T20:28:21.452Z,82.84
2018-12-14T20:30:50.207Z,82.80
2018-12-14T20:33:18.571Z,82.72
2018-12-14T20:35:46.914Z,82.81
2018-12-14T20:38:15.264Z,82.75
2018-12-14T20:40:43.603Z,82.93
2018-12-14T20:43:11.933Z,83.09
2018-12-14T20:45:40.280Z,82.82
2018-12-14T20:48:08.663Z,83.10
2018-12-14T20:50:37.362Z,83.27
2018-12-14T20:53:06.430Z,83.26
2018-12-14T20:55:34.790Z,83.39
2018-12-14T20:58:03.345Z,83.41
2018-12-14T21:00:31.686Z,83.37
2018-12-14T21:03:00.465Z,83.42
2018-12-14T21:05:28.808Z,83.52
2018-12-14T21:07:57.163Z,83.14
2018-12-14T21:10:25.502Z,83.01
2018-12-14T21:12:53.836Z,83.72
2018-12-14T21:15:22.179Z,84.02
2018-12-14T21:17:50.536Z,83.95
2018-12-14T21:20:18.868Z,83.61
2018-12-14T21:22:49.122Z,83.64
2018-12-14T21:25:17.459Z,83.82
2018-12-14T21:27:45.797Z,83.56
2018-12-14T21:30:15.019Z,83.91
2018-12-14T21:32:44.190Z,84.37
2018-12-14T21:35:12.534Z,84.41
2018-12-14T21:37:40.877Z,84.83
2018-12-14T21:40:09.224Z,84.97
2018-12-14T21:42:37.554Z,84.69
2018-12-14T21:45:05.901Z,84.33
2018-12-14T21:47:34.749Z,84.24
2018-12-14T21:50:03.087Z,84.05
2018-12-14T21:52:31.649Z,83.86
2018-12-14T21:54:59.810Z,83.79
2018-12-14T21:57:28.372Z,83.78
2018-12-14T21:59:56.528Z,83.77
2018-12-14T22:02:24.879Z,83.52
2018-12-14T22:04:53.221Z,83.50
2018-12-14T22:07:21.558Z,83.92
2018-12-14T22:09:50.534Z,84.32
2018-12-14T22:12:18.865Z,84.55
2018-12-14T22:14:47.224Z,84.51
2018-12-14T22:17:15.563Z,84.43
2018-12-14T22:19:43.886Z,84.53
2018-12-14T22:22:12.548Z,84.87
2018-12-14T22:24:40.887Z,85.09
2018-12-14T22:27:10.120Z,85.16
2018-12-14T22:29:38.475Z,84.92
2018-12-14T22:32:06.823Z,84.90
2018-12-14T22:34:35.155Z,84.90
2018-12-14T22:37:03.511Z,84.65
2018-12-14T22:39:31.842Z,84.85
2018-12-14T22:42:00.171Z,84.76
2018-12-14T22:44:28.503Z,84.64
2018-12-14T22:46:56.838Z,84.59
2018-12-14T22:49:25.169Z,84.68
2018-12-14T22:51:53.505Z,84.45
2018-12-14T22:54:21.845Z,84.53
2018-12-14T22:56:50.194Z,84.39
2018-12-14T22:59:18.506Z,84.29
2018-12-14T23:01:46.861Z,84.14
2018-12-14T23:04:15.230Z,83.86
2018-12-14T23:06:43.572Z,84.30
2018-12-14T23:09:11.903Z,84.59
2018-12-14T23:11:40.233Z,84.32
2018-12-14T23:14:08.565Z,83.94
2018-12-14T23:16:36.893Z,83.99
2018-12-14T23:19:05.253Z,84.09
2018-12-14T23:21:33.566Z,83.97
2018-12-14T23:24:01.912Z,83.84
2018-12-14T23:26:30.243Z,83.64
2018-12-14T23:28:58.568Z,83.33
2018-12-14T23:31:26.899Z,83.22
2018-12-14T23:33:55.231Z,83.17
2018-12-14T23:36:23.564Z,83.23
2018-12-14T23:38:51.904Z,83.37
2018-12-14T23:41:20.258Z,83.81
2018-12-14T23:43:48.603Z,83.49
2018-12-14T23:46:16.946Z,83.33
2018-12-14T23:48:45.285Z,83.43
2018-12-14T23:51:13.834Z,83.85
2018-12-14T23:53:41.933Z,84.04
2018-12-14T23:56:10.261Z,84.14
2018-12-14T23:58:38.598Z,84.07
